Iowa City, IA

9:02 PM CDT on April 28, 2017 (GMT -0500)
NE Iowa City | | Change Station

Elev 755 ft 41.71 °N, 91.48 °W | Updated 0 second ago

Overcast
Overcast
43.6 °F
Feels Like 44 °F
N
0.0
Wind Variable Wind from ENE

Today
High -- | Low -- °F
--% Chance of Precip.
Yesterday
High -- | Low -- °F
Precip. -- in
Pressure 29.96 in
Visibility 4.0 miles
Clouds Overcast 600 ft
Windchill 44 °F
Dew Point 43 °F
Humidity 98%
Rainfall 0.64 in
Snow Depth Not available.
6:06 AM 8:01 PM
Waxing Crescent, 10% visible
METAR KIOW 290152Z AUTO 01008KT 4SM BR OVC006 08/07 A2994 RMK AO2 CIG 005V010 SLP143 T00780067
Pressure 29.96 in
Visibility 4.0 miles
Clouds Overcast 600 ft
Windchill 44 °F
Dew Point 43 °F
Humidity 98%
Rainfall 0.64 in
Snow Depth Not available.
6:06 AM 8:01 PM
Waxing Crescent, 10% visible
METAR KIOW 290152Z AUTO 01008KT 4SM BR OVC006 08/07 A2994 RMK AO2 CIG 005V010 SLP143 T00780067

Get Severe Weather Alerts

Thanks for signing up!

Be on the lookout for a verification email in your inbox.

You'll start receiving the daily forecast at 8 AM.

×

10-Day Weather Forecast

Almanac

Astronomy

Apr. 28, 2017 Rise Set
Actual Time
Civil Twilight
Nautical Twilight
Astronomical Twilight
Moon
Length of Visible Light
Length of Day
Tomorrow will be .
, % of the Moon is Illuminated

Today's Extremes

State Highs State Lows

Community

WunderPhotos

WunderBlog® & News

Nearby

Air Quality

  Air Quality AQ Index Pollutant
Not available.

Snow Depth

Station Depth Elevation

Earthquake Activity

City Distance Mag. Time & Date
Minimum magnitude displayed is 2.5.

Coastal Water Temperatures

Place Temperature

Stations

Nearby Weather Stations

Station Location Temp. Windchill Dew Point Humidity Wind Precip. Elev Updated Type
                   

Watches & Warnings

There are currently no watches in effect.